LIMF/TRN METAR and TAF weather

Enter ICAO airport designator
Station Type Date Time Source
LIMF METAR 2019/07/17 18:20 UTC NOAA

LIMF 171820Z 11004KT 9999 SCT070 26/15 Q1011


Station Type Date Time Source
LIMF Decoded METAR 2019/07/17 18:20 UTC NOAA

Torino / Caselle, Italy (LIMF) 45-13N 007-39E 287M
Jul 17, 2019 - 02:20 PM EDT / 2019.07.17 1820 UTC
Wind: from the ESE (110 degrees) at 5 MPH (4 KT):0
Visibility: greater than 7 mile(s):0
Sky conditions: partly cloudy
Temperature: 78 F (26 C)
Dew Point: 59 F (15 C)
Relative Humidity: 50%
Pressure (altimeter): 29.85 in. Hg (1011 hPa)
ob: LIMF 171820Z 11004KT 9999 SCT070 26/15 Q1011
cycle: 18

Station Type Date Time Source
LIMF TAF 2019/07/17 18:21 UTC NOAA

TAF LIMF 171700Z 1718/1818 VRB05KT CAVOK

Example: see airport list